< < Back
Terminal Aerodrome Forecast


Current Version              Previous Versions:   1  2  3  4  5  6  7  8  9  

Terminal Aerodrome Forecast

541
FTUS42 KGSP 182300
TAFAND
TAF
KAND 182334Z 1900/1924 03013G22KT P6SM RA OVC070
     FM190300 04015G26KT P6SM RA OVC025
     FM190600 03015G26KT P6SM RA OVC008
     FM191600 05016G27KT P6SM -RA OVC015
     FM191800 05016G27KT P6SM OVC015=

Latest METAR

209
SAUS70 KWBC 191000
MTRAND
METAR KAND 190956Z AUTO 05011KT 7SM -RA SCT012 OVC042 10/09 A3006 RMK
AO2 RAB21 SLP180 P0000 T01000094


USA.gov is the U.S. government's official web portal to all federal, state and local government web resources and services.